createdAt,value
2019-01-27T00:02:01.776Z,6.50
2019-01-27T00:04:30.754Z,5.33
2019-01-27T00:06:59.507Z,5.37
2019-01-27T00:09:26.006Z,5.20
2019-01-27T00:12:14.243Z,4.30
2019-01-27T00:14:42.745Z,4.43
2019-01-27T00:17:09.460Z,4.67
2019-01-27T00:19:36.358Z,4.20
2019-01-27T00:22:04.203Z,4.57
2019-01-27T00:24:31.163Z,4.50
2019-01-27T00:26:57.853Z,4.17
2019-01-27T00:29:24.587Z,4.07
2019-01-27T00:32:04.926Z,2.97
2019-01-27T00:34:31.651Z,4.37
2019-01-27T00:37:22.526Z,4.77
2019-01-27T00:43:05.199Z,4.60
2019-01-27T00:45:32.056Z,3.83
2019-01-27T00:47:58.763Z,4.03
2019-01-27T00:50:30.125Z,4.30
2019-01-27T00:53:00.508Z,5.43
2019-01-27T00:55:27.346Z,3.90
2019-01-27T00:58:33.476Z,4.40
2019-01-27T01:01:44.257Z,4.20
2019-01-27T01:06:56.626Z,3.53
2019-01-27T01:09:45.454Z,4.20
2019-01-27T01:12:15.385Z,4.13
2019-01-27T01:14:48.343Z,4.20
2019-01-27T01:17:37.946Z,4.13
2019-01-27T01:20:08.963Z,4.23
2019-01-27T01:22:35.641Z,3.80
2019-01-27T01:25:12.699Z,4.07
2019-01-27T01:27:42.207Z,4.30
2019-01-27T01:30:43.991Z,4.03
2019-01-27T01:33:12.464Z,3.27
2019-01-27T01:38:34.961Z,2.83
2019-01-27T01:41:07.710Z,3.80
2019-01-27T01:46:54.814Z,4.33
2019-01-27T01:52:45.687Z,3.73
2019-01-27T02:01:27.936Z,4.00
2019-01-27T02:13:07.614Z,3.63
2019-01-27T02:16:21.197Z,3.77
2019-01-27T02:18:41.426Z,3.83
2019-01-27T02:24:33.764Z,3.47
2019-01-27T02:26:59.420Z,3.67
2019-01-27T02:32:14.371Z,3.40
2019-01-27T02:35:05.155Z,3.13
2019-01-27T02:37:35.292Z,3.40
2019-01-27T02:40:23.915Z,3.40
2019-01-27T02:43:03.606Z,2.97
2019-01-27T02:45:33.810Z,2.80
2019-01-27T02:48:12.008Z,3.17
2019-01-27T02:54:05.371Z,3.10
2019-01-27T02:56:32.233Z,3.03
2019-01-27T03:02:09.053Z,3.10
2019-01-27T03:07:32.239Z,3.20
2019-01-27T03:10:34.062Z,3.97
2019-01-27T03:22:06.079Z,3.90
2019-01-27T03:24:32.767Z,3.30
2019-01-27T03:26:59.509Z,3.63
2019-01-27T03:32:03.565Z,3.13
2019-01-27T03:34:30.293Z,3.70
2019-01-27T03:36:58.869Z,3.50
2019-01-27T03:42:08.960Z,3.70
2019-01-27T03:44:55.182Z,3.50
2019-01-27T03:47:40.185Z,3.57
2019-01-27T03:50:31.231Z,2.73
2019-01-27T03:52:59.306Z,3.67
2019-01-27T03:58:46.935Z,3.60
2019-01-27T04:01:21.998Z,3.00
2019-01-27T04:04:13.063Z,3.37
2019-01-27T04:06:42.267Z,3.17
2019-01-27T04:09:18.277Z,3.07
2019-01-27T04:12:00.488Z,2.70
2019-01-27T04:14:27.235Z,3.23
2019-01-27T04:17:08.487Z,3.47
2019-01-27T04:22:17.532Z,3.00
2019-01-27T04:24:44.278Z,3.23
2019-01-27T04:27:35.709Z,3.50
2019-01-27T04:29:59.159Z,3.30
2019-01-27T04:32:47.006Z,3.00
2019-01-27T04:35:14.835Z,3.20
2019-01-27T04:37:41.540Z,2.70
2019-01-27T04:40:11.851Z,3.00
2019-01-27T04:42:39.115Z,2.93
2019-01-27T04:45:52.116Z,3.20
2019-01-27T04:48:18.875Z,2.63
2019-01-27T04:50:45.657Z,3.73
2019-01-27T04:53:12.355Z,3.60
2019-01-27T04:55:39.105Z,3.23
2019-01-27T04:58:06.120Z,3.87
2019-01-27T05:00:35.111Z,3.13
2019-01-27T05:06:43.150Z,3.43
2019-01-27T05:09:12.645Z,3.37
2019-01-27T05:12:02.336Z,4.50
2019-01-27T05:14:36.112Z,3.10
2019-01-27T05:17:15.337Z,3.77
2019-01-27T05:22:57.877Z,4.07
2019-01-27T05:25:53.286Z,3.80
2019-01-27T05:28:47.159Z,3.90
2019-01-27T05:32:07.008Z,3.30
2019-01-27T05:34:28.344Z,3.43
2019-01-27T05:40:12.212Z,4.33
2019-01-27T05:43:12.103Z,2.97
2019-01-27T05:45:20.345Z,4.00
2019-01-27T05:47:46.970Z,3.67
2019-01-27T05:50:17.921Z,3.77
2019-01-27T05:52:44.785Z,3.90
2019-01-27T05:55:13.688Z,4.10
2019-01-27T05:57:40.535Z,3.87
2019-01-27T06:00:10.926Z,3.20
2019-01-27T06:02:40.402Z,4.10
2019-01-27T06:05:07.329Z,4.03
2019-01-27T06:07:34.011Z,3.90
2019-01-27T06:10:00.733Z,4.47
2019-01-27T06:12:27.485Z,3.97
2019-01-27T06:15:01.605Z,4.37
2019-01-27T06:20:27.679Z,2.77
2019-01-27T06:26:02.099Z,3.70
2019-01-27T06:28:36.223Z,3.50
2019-01-27T06:31:02.144Z,3.20
2019-01-27T06:34:00.524Z,3.97
2019-01-27T06:36:59.669Z,3.63
2019-01-27T06:39:30.550Z,3.93
2019-01-27T06:41:57.216Z,3.90
2019-01-27T06:44:24.116Z,3.40
2019-01-27T06:46:50.888Z,3.27
2019-01-27T06:52:44.810Z,3.10
2019-01-27T06:55:24.655Z,3.83
2019-01-27T06:57:54.376Z,3.37
2019-01-27T07:03:29.532Z,3.33
2019-01-27T07:06:09.471Z,3.20
2019-01-27T07:11:39.102Z,3.57
2019-01-27T07:14:24.430Z,3.23
2019-01-27T07:17:10.656Z,3.53
2019-01-27T07:19:42.214Z,3.63
2019-01-27T07:22:37.754Z,3.40
2019-01-27T07:28:08.124Z,3.30
2019-01-27T07:31:01.050Z,2.20
2019-01-27T07:37:10.794Z,3.03
2019-01-27T07:42:22.074Z,3.23
2019-01-27T07:43:06.003Z,3.20
2019-01-27T07:45:25.105Z,3.30
2019-01-27T07:48:43.250Z,3.10
2019-01-27T07:50:47.441Z,4.17
2019-01-27T07:53:32.543Z,3.40
2019-01-27T07:56:01.030Z,2.60
2019-01-27T07:58:29.661Z,3.03
2019-01-27T08:01:02.657Z,2.80
2019-01-27T08:03:31.170Z,3.03
2019-01-27T08:06:02.314Z,3.07
2019-01-27T08:08:42.919Z,3.70
2019-01-27T08:11:11.475Z,2.93
2019-01-27T08:14:02.682Z,4.17
2019-01-27T08:16:42.219Z,3.43
2019-01-27T08:28:14.423Z,4.00
2019-01-27T08:33:59.942Z,2.97
2019-01-27T08:39:43.705Z,3.87
2019-01-27T08:42:31.978Z,3.33
2019-01-27T08:45:01.993Z,2.87
2019-01-27T08:47:28.825Z,4.47
2019-01-27T08:49:55.644Z,3.80
2019-01-27T08:52:22.399Z,4.10
2019-01-27T08:57:37.191Z,3.77
2019-01-27T09:00:40.033Z,3.87
2019-01-27T09:02:59.959Z,3.73
2019-01-27T09:05:57.138Z,4.00
2019-01-27T09:11:55.729Z,4.03
2019-01-27T09:18:24.447Z,3.70
2019-01-27T09:21:16.784Z,4.60
2019-01-27T09:24:01.814Z,3.77
2019-01-27T09:26:43.827Z,3.57
2019-01-27T09:29:38.055Z,3.37
2019-01-27T09:32:46.986Z,4.13
2019-01-27T09:38:29.154Z,3.73
2019-01-27T09:41:16.916Z,3.60
2019-01-27T09:46:50.401Z,4.27
2019-01-27T09:49:35.504Z,3.40
2019-01-27T09:52:12.651Z,4.00
2019-01-27T09:54:47.154Z,3.83
2019-01-27T09:57:35.683Z,3.70
2019-01-27T10:00:43.043Z,4.00
2019-01-27T10:02:43.206Z,3.57
2019-01-27T10:05:31.956Z,3.47
2019-01-27T10:08:08.274Z,3.50
2019-01-27T10:10:39.885Z,3.70
2019-01-27T10:13:43.059Z,3.07
2019-01-27T10:16:14.071Z,4.03
2019-01-27T10:22:19.595Z,3.87
2019-01-27T10:25:16.100Z,4.33
2019-01-27T10:34:05.536Z,4.00
2019-01-27T10:42:50.579Z,4.03
2019-01-27T10:45:52.040Z,3.23
2019-01-27T10:48:38.760Z,3.97
2019-01-27T10:51:30.383Z,3.70
2019-01-27T10:53:58.969Z,3.27
2019-01-27T10:56:33.210Z,3.80
2019-01-27T10:59:04.585Z,2.90
2019-01-27T11:01:33.108Z,4.07
2019-01-27T11:04:01.761Z,3.63
2019-01-27T11:06:50.922Z,3.60
2019-01-27T11:09:25.471Z,3.53
2019-01-27T11:12:28.749Z,3.30
2019-01-27T11:14:57.212Z,3.90
2019-01-27T11:20:55.753Z,3.93
2019-01-27T11:23:26.884Z,3.90
2019-01-27T11:25:59.943Z,3.77
2019-01-27T11:28:28.793Z,3.70
2019-01-27T11:31:06.236Z,4.33
2019-01-27T11:33:34.780Z,4.23
2019-01-27T11:38:53.347Z,3.93
2019-01-27T11:41:21.830Z,4.03
2019-01-27T11:44:06.866Z,4.23
2019-01-27T11:46:41.027Z,3.43
2019-01-27T11:49:10.382Z,3.97
2019-01-27T11:51:38.314Z,3.70
2019-01-27T11:54:05.055Z,4.23
2019-01-27T11:56:31.793Z,3.77
2019-01-27T11:58:58.479Z,3.53
2019-01-27T12:01:51.226Z,3.80
2019-01-27T12:04:20.134Z,4.00
2019-01-27T12:06:47.001Z,4.07
2019-01-27T12:09:13.722Z,3.97
2019-01-27T12:14:36.985Z,4.53
2019-01-27T12:17:06.466Z,4.30
2019-01-27T12:19:33.311Z,5.40
2019-01-27T12:22:00.572Z,4.17
2019-01-27T12:24:53.550Z,4.63
2019-01-27T12:27:22.001Z,3.90
2019-01-27T12:29:48.666Z,4.90
2019-01-27T12:32:29.396Z,4.67
2019-01-27T12:38:15.610Z,4.70
2019-01-27T12:40:42.306Z,3.83
2019-01-27T12:43:11.911Z,4.23
2019-01-27T12:45:38.587Z,4.50
2019-01-27T12:48:05.396Z,4.17
2019-01-27T12:50:32.205Z,3.80
2019-01-27T12:53:25.131Z,3.93
2019-01-27T12:55:57.512Z,3.60
2019-01-27T12:58:24.342Z,4.20
2019-01-27T13:00:53.409Z,4.13
2019-01-27T13:03:21.534Z,4.43
2019-01-27T13:05:53.639Z,4.00
2019-01-27T13:08:41.656Z,4.37
2019-01-27T13:11:43.635Z,4.13
2019-01-27T13:13:58.045Z,4.77
2019-01-27T13:16:24.910Z,5.03
2019-01-27T13:18:56.142Z,4.13
2019-01-27T13:21:22.850Z,4.63
2019-01-27T13:23:49.635Z,5.37
2019-01-27T13:26:16.426Z,4.70
2019-01-27T13:28:43.239Z,4.57
2019-01-27T13:31:10.015Z,4.30
2019-01-27T13:33:37.164Z,5.10
2019-01-27T13:36:11.890Z,4.47
2019-01-27T13:38:38.785Z,4.50
2019-01-27T13:41:18.239Z,4.77
2019-01-27T13:43:45.107Z,4.70
2019-01-27T13:46:11.961Z,4.20
2019-01-27T13:48:50.348Z,4.67
2019-01-27T13:51:17.168Z,4.40
2019-01-27T13:53:47.100Z,5.00
2019-01-27T13:56:17.544Z,4.30
2019-01-27T13:58:48.870Z,5.13
2019-01-27T14:01:15.505Z,4.60
2019-01-27T14:06:36.075Z,3.83
2019-01-27T14:09:19.588Z,4.70
2019-01-27T14:11:47.055Z,4.47
2019-01-27T14:14:48.817Z,4.30
2019-01-27T14:17:16.026Z,5.27
2019-01-27T14:19:49.874Z,4.23
2019-01-27T14:25:53.742Z,4.37
2019-01-27T14:28:20.546Z,4.70
2019-01-27T14:34:02.201Z,5.83
2019-01-27T14:36:29.259Z,5.03
2019-01-27T14:39:34.133Z,4.53
2019-01-27T14:42:01.032Z,5.23
2019-01-27T14:45:08.359Z,5.00
2019-01-27T14:47:57.678Z,4.53
2019-01-27T14:50:49.654Z,4.57
2019-01-27T14:53:18.339Z,4.70
2019-01-27T14:56:06.650Z,4.97
2019-01-27T14:58:46.178Z,4.40
2019-01-27T15:01:29.532Z,4.40
2019-01-27T15:03:56.254Z,4.83
2019-01-27T15:06:54.741Z,4.03
2019-01-27T15:12:21.579Z,5.10
2019-01-27T15:14:48.263Z,4.67
2019-01-27T15:17:15.125Z,4.80
2019-01-27T15:19:41.917Z,4.37
2019-01-27T15:22:35.111Z,4.70
2019-01-27T15:25:43.910Z,4.70
2019-01-27T15:28:21.654Z,4.70
2019-01-27T15:30:48.331Z,4.27
2019-01-27T15:33:16.121Z,4.60
2019-01-27T15:38:42.268Z,4.03
2019-01-27T15:41:09.142Z,4.47
2019-01-27T15:43:35.969Z,5.07
2019-01-27T15:46:02.839Z,4.50
2019-01-27T15:48:29.562Z,4.23
2019-01-27T15:51:02.658Z,4.03
2019-01-27T15:53:42.001Z,4.17
2019-01-27T15:56:11.717Z,4.37
2019-01-27T15:58:44.404Z,3.50
2019-01-27T16:07:46.003Z,3.97
2019-01-27T16:13:01.511Z,3.60
2019-01-27T16:15:33.790Z,4.10
2019-01-27T16:21:42.609Z,4.10
2019-01-27T16:24:27.839Z,3.80
2019-01-27T16:29:54.423Z,4.00
2019-01-27T16:32:21.431Z,3.87
2019-01-27T16:34:48.499Z,3.70
2019-01-27T16:37:15.189Z,4.13
2019-01-27T16:39:49.817Z,4.30
2019-01-27T16:42:18.335Z,4.17
2019-01-27T16:44:45.131Z,3.80
2019-01-27T16:47:18.911Z,4.10
2019-01-27T16:49:54.515Z,4.20
2019-01-27T16:52:44.170Z,4.23
2019-01-27T16:58:33.621Z,4.30
2019-01-27T17:01:06.354Z,4.60
2019-01-27T17:03:33.101Z,4.87
2019-01-27T17:09:17.707Z,5.87
2019-01-27T17:14:37.607Z,5.67
2019-01-27T17:17:14.941Z,5.43
2019-01-27T17:24:14.162Z,4.40
2019-01-27T17:26:32.998Z,6.40
2019-01-27T17:28:51.010Z,6.80
2019-01-27T17:34:31.705Z,7.13
2019-01-27T17:37:19.834Z,6.47
2019-01-27T17:43:30.691Z,6.70
2019-01-27T17:46:08.674Z,6.33
2019-01-27T17:48:54.898Z,7.23
2019-01-27T17:51:22.580Z,7.00
2019-01-27T17:54:11.546Z,7.50
2019-01-27T17:56:38.340Z,9.00
2019-01-27T17:59:30.252Z,8.53
2019-01-27T18:02:26.431Z,9.10
2019-01-27T18:05:34.259Z,8.30
2019-01-27T18:08:13.576Z,6.33
2019-01-27T18:10:53.803Z,8.40
2019-01-27T18:14:57.515Z,8.70
2019-01-27T18:15:50.694Z,8.87
2019-01-27T18:18:37.089Z,9.63
2019-01-27T18:21:04.475Z,8.93
2019-01-27T18:24:27.026Z,9.97
2019-01-27T18:26:53.669Z,9.97
2019-01-27T18:29:20.370Z,10.07
2019-01-27T18:31:47.031Z,9.43
2019-01-27T18:34:14.002Z,9.27
2019-01-27T18:36:40.810Z,11.17
2019-01-27T18:39:11.392Z,10.53
2019-01-27T18:41:40.476Z,9.87
2019-01-27T18:44:07.296Z,10.30
2019-01-27T18:46:34.239Z,9.93
2019-01-27T18:51:53.900Z,9.27
2019-01-27T18:54:43.276Z,9.70
2019-01-27T18:57:12.213Z,9.73
2019-01-27T18:59:58.539Z,9.63
2019-01-27T19:02:36.773Z,8.40
2019-01-27T19:05:08.706Z,9.47
2019-01-27T19:07:55.487Z,10.90
2019-01-27T19:10:43.894Z,10.33
2019-01-27T19:13:13.415Z,9.83
2019-01-27T19:26:35.054Z,9.10
2019-01-27T19:29:43.972Z,8.73
2019-01-27T19:32:26.197Z,9.53
2019-01-27T19:35:21.978Z,8.60
2019-01-27T19:38:12.069Z,8.80
2019-01-27T19:44:18.520Z,9.53
2019-01-27T19:47:00.546Z,8.17
2019-01-27T19:49:35.185Z,9.27
2019-01-27T19:59:06.382Z,10.03
2019-01-27T20:02:10.198Z,8.97
2019-01-27T20:07:55.783Z,9.63
2019-01-27T20:10:37.648Z,9.97
2019-01-27T20:16:03.328Z,8.50
2019-01-27T20:18:49.900Z,10.00
2019-01-27T20:21:36.776Z,9.43
2019-01-27T20:24:05.381Z,6.90
2019-01-27T20:26:36.599Z,8.20
2019-01-27T20:29:23.266Z,7.90
2019-01-27T20:32:20.424Z,8.60
2019-01-27T20:38:15.878Z,7.97
2019-01-27T20:41:14.822Z,7.80
2019-01-27T20:43:50.760Z,7.50
2019-01-27T20:46:22.105Z,7.67
2019-01-27T20:48:56.619Z,8.30
2019-01-27T20:57:19.250Z,6.47
2019-01-27T20:59:56.597Z,6.53
2019-01-27T21:02:25.425Z,7.30
2019-01-27T21:05:23.610Z,7.77
2019-01-27T21:07:57.699Z,5.43
2019-01-27T21:10:29.027Z,6.23
2019-01-27T21:13:00.444Z,6.27
2019-01-27T21:15:29.011Z,6.63
2019-01-27T21:18:01.934Z,6.73
2019-01-27T21:20:28.689Z,8.47
2019-01-27T21:26:06.609Z,7.53
2019-01-27T21:28:33.734Z,7.23
2019-01-27T21:34:14.045Z,7.83
2019-01-27T21:36:42.092Z,7.87
2019-01-27T21:39:09.441Z,7.97
2019-01-27T21:41:36.396Z,8.97
2019-01-27T21:44:05.962Z,5.17
2019-01-27T21:46:32.660Z,8.13
2019-01-27T21:49:06.627Z,7.80
2019-01-27T21:51:40.503Z,7.33
2019-01-27T21:54:07.378Z,9.27
2019-01-27T21:56:34.085Z,7.83
2019-01-27T22:01:57.672Z,7.03
2019-01-27T22:04:24.452Z,7.90
2019-01-27T22:06:51.135Z,8.30
2019-01-27T22:09:27.976Z,9.10
2019-01-27T22:12:04.951Z,8.93
2019-01-27T22:14:31.630Z,9.67
2019-01-27T22:16:59.279Z,9.23
2019-01-27T22:19:26.042Z,8.43
2019-01-27T22:22:33.474Z,9.83
2019-01-27T22:24:28.708Z,7.67
2019-01-27T22:26:55.407Z,6.90
2019-01-27T22:29:30.187Z,9.53
2019-01-27T22:32:15.700Z,8.40
2019-01-27T22:34:56.158Z,7.43
2019-01-27T22:37:55.320Z,6.13
2019-01-27T22:40:45.540Z,7.37
2019-01-27T22:43:09.667Z,6.40
2019-01-27T22:48:29.627Z,7.97
2019-01-27T22:54:01.256Z,9.50
2019-01-27T22:57:01.440Z,7.43
2019-01-27T22:59:28.216Z,6.63
2019-01-27T23:01:54.891Z,8.23
2019-01-27T23:04:21.684Z,7.10
2019-01-27T23:07:04.301Z,8.70
2019-01-27T23:09:57.721Z,8.17
2019-01-27T23:15:01.226Z,8.77
2019-01-27T23:17:40.104Z,8.50
2019-01-27T23:20:26.925Z,8.70
2019-01-27T23:23:07.803Z,8.33
2019-01-27T23:28:15.058Z,7.33
2019-01-27T23:30:41.718Z,9.77
2019-01-27T23:33:21.080Z,8.53
2019-01-27T23:35:55.503Z,9.53
2019-01-27T23:38:33.011Z,8.90
2019-01-27T23:40:58.884Z,10.10
2019-01-27T23:43:27.462Z,9.03
2019-01-27T23:46:21.422Z,9.03
2019-01-27T23:48:53.062Z,9.30
2019-01-27T23:51:19.770Z,7.97
2019-01-27T23:53:46.615Z,8.13
2019-01-27T23:56:15.598Z,7.90
2019-01-27T23:58:44.147Z,9.10
